Latest Weather Observations for Sydney Airport

IDN60901

Issued at 3:41 pm EST Tuesday 26 September 2017 (issued every 10 minutes, with the page automatically refreshed every 10 minutes)

About weather observations | Map of Sydney area stations | Latest observations for Sydney area | Other Formats
Station Details ID: 066037 Name: SYDNEY AIRPORT AMO Lat: -33.95 Lon: 151.17 Height: 6.0 m
Data from the previous 72 hours. | See also: Recent months at Sydney Airport
Date/Time
EST
Temp
°C
App
Temp
°C
Dew
Point
°C
Rel
Hum
%
Delta-T
°C
Wind Press
QNH
hPa
Press
MSL
hPa
Rain since
9am
mm
Dir  Spd
km/h
Gust
km/h
Spd
kts
Gust
kts
26/03:30pm 18.1 12.6 9.2 56 4.6 SE 28 33 15 18 1015.6 1015.6 0.0
26/03:00pm 18.4 13.0 9.5 56 4.7 SE 28 35 15 19 1015.5 1015.5 0.0
26/02:30pm 19.0 13.4 8.9 52 5.3 SE 28 33 15 18 1015.4 1015.4 0.0
26/02:00pm 18.7 13.1 8.7 52 5.2 SE 28 32 15 17 1015.3 1015.3 0.0
26/01:30pm 19.1 13.7 9.6 54 5.0 SE 28 33 15 18 1015.4 1015.4 0.0
26/01:00pm 18.8 13.6 9.0 53 5.1 SE 26 32 14 17 1015.4 1015.4 0.0
26/12:30pm 18.8 12.7 6.6 45 6.1 SE 28 33 15 18 1015.4 1015.4 0.0
26/12:00pm 19.4 13.1 5.8 41 6.7 SE 28 33 15 18 1015.8 1015.8 0.0
26/11:30am 19.7 13.6 4.6 37 7.3 SE 26 33 14 18 1016.0 1016.0 0.0
26/11:00am 19.6 13.6 3.3 34 7.7 SSE 24 33 13 18 1016.2 1016.2 0.0
26/10:30am 19.2 12.9 1.7 31 7.9 SSE 24 30 13 16 1016.4 1016.4 0.0
26/10:00am 19.0 13.6 2.4 33 7.6 SSW 20 35 11 19 1016.6 1016.6 0.0
26/09:30am 19.0 10.7 2.0 32 7.7 WSW 35 43 19 23 1016.8 1016.8 0.0
26/09:16am 18.5 11.8 3.9 38 6.9 WSW 28 46 15 25 1016.7 1016.7 0.0
26/09:00am 18.4 12.4 3.1 36 7.1 WSW 24 35 13 19 1016.6 1016.6 0.0
26/08:30am 17.8 12.6 3.3 38 6.7 WSW 20 28 11 15 1016.6 1016.6 0.0
26/08:00am 17.7 12.6 2.8 37 6.8 WSW 19 24 10 13 1016.4 1016.4 0.0
26/07:30am 16.8 11.8 3.8 42 6.0 WSW 19 24 10 13 1016.1 1016.1 0.0
26/07:00am 15.9 10.8 4.3 46 5.4 WSW 20 24 11 13 1015.7 1015.7 0.0
26/06:30am 14.4 8.5 3.8 49 4.8 W 24 28 13 15 1015.4 1015.4 0.0
26/06:00am 13.9 9.8 4.2 52 4.4 W 15 22 8 12 1015.1 1015.1 0.0
26/05:30am 12.5 9.4 3.5 54 4.0 SW 9 11 5 6 1014.8 1014.8 0.0
26/05:00am 13.5 10.1 4.1 53 4.3 W 11 13 6 7 1014.3 1014.3 0.0
26/04:30am 13.7 10.3 4.0 52 4.4 W 11 15 6 8 1013.9 1013.9 0.0
26/04:00am 13.8 10.8 3.9 51 4.5 W 9 13 5 7 1013.6 1013.6 0.0
26/03:30am 13.5 10.8 3.8 52 4.4 W 7 9 4 5 1013.4 1013.4 0.0
26/03:00am 13.9 11.2 3.9 51 4.5 WNW 7 9 4 5 1013.3 1013.3 0.0
26/02:30am 13.9 11.3 4.2 52 4.4 WSW 7 9 4 5 1013.3 1013.3 0.0
26/02:00am 14.4 11.3 3.8 49 4.8 W 9 9 5 5 1013.1 1013.1 0.0
26/01:30am 14.7 11.8 4.4 50 4.8 WSW 9 9 5 5 1013.0 1013.0 0.0
26/01:00am 14.5 11.7 5.3 54 4.3 SW 9 11 5 6 1013.2 1013.2 0.0
26/12:30am 14.9 11.8 5.7 54 4.4 SW 11 13 6 7 1013.2 1013.2 0.0
26/12:00am 15.6 12.2 5.8 52 4.7 SSW 13 15 7 8 1013.2 1013.2 0.0
 
Date/Time
EST
Temp
°C
App
Temp
°C
Dew
Point
°C
Rel
Hum
%
Delta-T
°C
Wind Press
QNH
hPa
Press
MSL
hPa
Rain since
9am
mm
Dir  Spd
km/h
Gust
km/h
Spd
kts
Gust
kts
25/11:30pm 16.8 13.2 2.8 39 6.4 SSW 11 15 6 8 1013.0 1013.0 0.0
25/11:00pm 17.5 12.1 2.7 37 6.8 WNW 20 26 11 14 1012.9 1012.9 0.0
25/10:30pm 17.8 12.0 2.5 36 7.0 WNW 22 30 12 16 1012.8 1012.8 0.0
25/10:00pm 18.2 12.5 2.9 36 7.1 WNW 22 33 12 18 1012.7 1012.7 0.0
25/09:30pm 18.2 12.1 2.5 35 7.2 WNW 24 33 13 18 1012.6 1012.6 0.0
25/09:00pm 18.6 12.4 2.4 34 7.4 WNW 24 32 13 17 1012.1 1012.1 0.0
25/08:30pm 19.3 13.5 2.2 32 7.8 WNW 22 30 12 16 1011.7 1011.7 0.0
25/08:00pm 19.7 13.1 2.1 31 8.1 WNW 26 35 14 19 1011.1 1011.1 0.0
25/07:30pm 20.2 12.8 2.1 30 8.3 WNW 30 35 16 19 1010.8 1010.8 0.0
25/07:00pm 20.5 14.3 1.9 29 8.6 WNW 24 39 13 21 1010.4 1010.4 0.0
25/06:30pm 21.3 15.1 2.1 28 8.9 W 24 32 13 17 1009.9 1009.9 0.0
25/06:00pm 22.2 14.8 1.8 26 9.5 W 30 39 16 21 1009.2 1009.2 0.0
25/05:30pm 22.4 13.7 2.0 26 9.6 WNW 37 46 20 25 1008.5 1008.5 0.0
25/05:15pm 22.8 14.1 1.8 25 9.8 WNW 37 56 20 30 1008.0 1008.0 0.0
25/05:00pm 23.0 13.8 1.4 24 10.1 WNW 39 50 21 27 1007.7 1007.7 0.0
25/04:51pm 23.3 14.5 1.6 24 10.2 WNW 37 56 20 30 1007.4 1007.4 0.0
25/04:30pm 23.9 14.6 0.9 22 10.7 NW 39 50 21 27 1007.2 1007.2 0.0
25/04:00pm 24.2 14.5 0.5 21 11.0 NW 41 59 22 32 1006.1 1006.1 0.0
25/03:58pm 24.0 14.3 0.4 21 10.8 NW 41 59 22 32 1006.0 1006.0 0.0
25/03:30pm 24.7 14.4 0.3 20 11.3 NW 44 57 24 31 1005.6 1005.6 0.0
25/03:00pm 24.8 15.0 -0.4 19 11.5 NW 41 52 22 28 1005.2 1005.2 0.0
25/02:44pm 27.1 18.5 0.0 17 12.7 WNW 35 54 19 29 1005.2 1005.2 0.0
25/02:30pm 26.3 16.8 -0.7 17 12.4 WNW 39 52 21 28 1005.0 1005.0 0.0
25/02:14pm 26.5 17.7 -1.3 16 12.6 WNW 35 57 19 31 1004.8 1004.8 0.0
25/02:00pm 26.7 17.9 -1.2 16 12.8 WNW 35 50 19 27 1004.6 1004.6 0.0
25/01:30pm 27.8 20.8 -0.3 16 13.1 WNW 26 35 14 19 1004.5 1004.5 0.0
25/01:00pm 28.0 19.7 -0.1 16 13.2 W 33 48 18 26 1004.7 1004.7 0.0
25/12:30pm 26.3 18.9 -0.7 17 12.4 W 28 39 15 21 1005.2 1005.2 0.0
25/12:00pm 26.2 19.7 0.0 18 12.2 W 24 41 13 22 1005.7 1005.7 0.0
25/11:30am 25.2 18.5 1.3 21 11.3 WSW 26 35 14 19 1005.8 1005.8 0.0
25/11:03am 25.8 18.3 -1.1 17 12.2 WNW 28 46 15 25 1006.0 1006.0 0.0
25/11:00am 25.7 18.7 -0.4 18 12.0 WNW 26 41 14 22 1006.0 1006.0 0.0
25/10:30am 24.3 16.4 1.2 22 10.8 WNW 32 43 17 23 1006.8 1006.8 0.0
25/10:00am 23.7 16.9 0.7 22 10.6 WNW 26 41 14 22 1007.5 1007.5 0.0
25/09:30am 24.2 18.6 1.2 22 10.8 WNW 20 30 11 16 1008.0 1008.0 0.0
25/09:00am 22.7 17.7 1.1 24 10.0 WNW 17 26 9 14 1008.0 1008.0 0.0
25/08:30am 22.0 18.2 1.6 26 9.4 WNW 11 17 6 9 1008.1 1008.1 0.0
25/08:00am 21.1 18.1 1.9 28 8.9 N 7 9 4 5 1007.5 1007.5 0.0
25/07:30am 20.4 17.6 1.8 29 8.5 NW 6 9 3 5 1007.3 1007.3 0.0
25/07:00am 18.7 16.0 2.9 35 7.3 WNW 6 9 3 5 1007.0 1007.0 0.0
25/06:30am 17.2 13.4 1.6 35 6.9 SW 11 19 6 10 1007.0 1007.0 0.0
25/06:00am 16.7 13.4 2.3 38 6.5 W 9 11 5 6 1006.6 1006.6 0.0
25/05:30am 16.7 15.1 2.3 38 6.5 CALM 0 6 0 3 1006.2 1006.2 0.0
25/05:00am 17.6 16.0 2.4 36 6.9 CALM 0 6 0 3 1005.7 1005.7 0.0
25/04:30am 17.8 13.7 2.2 35 7.1 WSW 13 17 7 9 1005.3 1005.3 0.0
25/04:00am 18.5 14.3 1.9 33 7.5 NW 13 13 7 7 1004.8 1004.8 0.0
25/03:30am 18.3 13.4 1.8 33 7.4 NW 17 19 9 10 1004.7 1004.7 0.0
25/03:00am 19.5 14.2 1.9 31 8.1 NNW 19 20 10 11 1004.4 1004.4 0.0
25/02:30am 19.1 14.3 2.5 33 7.6 NW 17 19 9 10 1004.1 1004.1 0.0
25/02:00am 20.3 15.4 2.2 30 8.4 NNW 17 19 9 10 1004.2 1004.2 0.0
25/01:30am 20.8 16.7 2.1 29 8.7 NNW 13 15 7 8 1004.1 1004.1 0.0
25/01:00am 20.2 16.0 1.6 29 8.5 NNW 13 15 7 8 1004.1 1004.1 0.0
25/12:30am 19.2 14.4 2.6 33 7.7 N 17 19 9 10 1004.3 1004.3 0.0
25/12:00am 21.1 15.6 1.9 28 8.9 N 20 22 11 12 1004.4 1004.4 0.0
 
Date/Time
EST
Temp
°C
App
Temp
°C
Dew
Point
°C
Rel
Hum
%
Delta-T
°C
Wind Press
QNH
hPa
Press
MSL
hPa
Rain since
9am
mm
Dir  Spd
km/h
Gust
km/h
Spd
kts
Gust
kts
24/11:30pm 20.5 15.1 2.3 30 8.4 NNW 20 22 11 12 1004.4 1004.4 0.0
24/11:00pm 20.2 14.8 2.5 31 8.3 N 20 24 11 13 1004.3 1004.3 0.0
24/10:30pm 20.6 15.6 1.5 28 8.7 NNW 17 22 9 12 1004.4 1004.4 0.0
24/10:00pm 22.3 17.6 0.8 24 9.9 NNW 15 20 8 11 1004.4 1004.4 0.0
24/09:30pm 22.3 17.6 0.8 24 9.8 NW 15 19 8 10 1004.4 1004.4 0.0
24/09:00pm 22.9 17.8 0.7 23 10.2 NW 17 22 9 12 1004.4 1004.4 0.0
24/08:30pm 22.4 17.6 0.3 23 10.0 WNW 15 20 8 11 1004.4 1004.4 0.0
24/08:00pm 22.6 16.9 0.4 23 10.1 W 20 24 11 13 1004.2 1004.2 0.0
24/07:30pm 22.9 17.3 0.1 22 10.3 W 19 22 10 12 1004.0 1004.0 0.0
24/07:00pm 24.6 19.4 0.2 20 11.3 WNW 17 26 9 14 1003.5 1003.5 0.0
24/06:30pm 25.1 18.5 -0.1 19 11.6 WNW 24 28 13 15 1003.2 1003.2 0.0
24/06:00pm 26.0 19.4 -0.1 18 12.1 WNW 24 33 13 18 1002.7 1002.7 0.0
24/05:30pm 26.6 18.7 -1.3 16 12.7 WNW 30 37 16 20 1002.5 1002.5 0.0
24/05:12pm 27.2 18.7 -1.7 15 13.1 WNW 33 52 18 28 1002.4 1002.4 0.0
24/05:00pm 27.2 18.7 -1.7 15 13.2 WNW 33 43 18 23 1002.3 1002.3 0.0
24/04:30pm 27.8 19.7 -0.3 16 13.1 WNW 32 44 17 24 1001.9 1001.9 0.0
24/04:00pm 27.7 19.6 -0.4 16 13.2 WNW 32 44 17 24 1001.8 1001.8 0.0
24/03:50pm 27.6 19.5 -0.5 16 13.1 WNW 32 50 17 27 1001.8 1001.8 0.0
24/03:30pm 27.5 18.9 0.3 17 12.8 W 35 46 19 25 1002.1 1002.1 0.0
24/03:00pm 28.0 17.8 -0.1 16 13.3 WNW 43 59 23 32 1002.2 1002.2 0.0
24/02:30pm 28.0 17.6 -0.1 16 13.2 WNW 44 61 24 33 1001.9 1001.9 0.0
24/02:18pm 28.5 19.4 -0.6 15 13.6 WNW 37 59 20 32 1002.2 1002.2 0.0
24/02:00pm 28.9 20.2 -0.3 15 13.8 WNW 35 46 19 25 1002.1 1002.1 0.0
24/01:30pm 29.1 21.0 -0.1 15 13.8 WNW 32 39 17 21 1002.0 1002.0 0.0
24/01:00pm 28.9 20.2 -0.3 15 13.8 WNW 35 54 19 29 1002.2 1002.2 0.0
24/12:54pm 29.3 21.0 0.0 15 13.9 WNW 33 54 18 29 1002.3 1002.3 0.0
24/12:30pm 29.2 21.1 -0.1 15 13.9 WNW 32 43 17 23 1002.4 1002.4 0.0
24/12:04pm 28.7 20.6 1.3 17 13.3 WNW 33 52 18 28 1002.4 1002.4 0.0
24/12:00pm 28.9 20.1 1.4 17 13.4 WNW 37 52 20 28 1002.9 1002.9 0.0
24/11:30am 29.5 22.1 1.9 17 13.6 WNW 30 41 16 22 1002.6 1002.6 0.0
24/11:00am 27.8 19.8 0.5 17 13.0 NW 32 44 17 24 1003.1 1003.1 0.0
24/10:51am 29.1 20.0 1.6 17 13.4 WNW 39 48 21 26 1003.7 1003.7 0.0
24/10:30am 28.7 20.3 1.3 17 13.3 W 35 48 19 26 1003.8 1003.8 0.0
24/10:00am 26.8 17.2 1.3 19 12.2 WSW 41 48 22 26 1003.7 1003.7 0.0
24/09:30am 26.9 17.8 2.1 20 12.0 W 39 50 21 27 1003.3 1003.3 0.0
24/09:00am 26.6 19.3 2.5 21 11.8 W 30 37 16 20 1002.6 1002.6 0.0
24/08:30am 26.1 20.8 2.1 21 11.6 WSW 19 30 10 16 1002.5 1002.5 0.0
24/08:00am 24.2 20.9 6.5 32 9.2 SW 13 19 7 10 1002.4 1002.4 0.0
24/07:30am 25.1 19.3 4.3 26 10.4 SW 24 35 13 19 1002.6 1002.6 0.0
24/07:00am 25.8 19.6 4.3 25 10.8 WSW 26 33 14 18 1002.0 1002.0 0.0
24/06:30am 27.9 21.4 2.9 20 12.4 W 26 39 14 21 1000.8 1000.8 0.0
24/06:00am 28.5 20.5 1.9 18 13.1 NW 33 41 18 22 999.8 999.8 0.0
24/05:30am 29.1 20.0 1.6 17 13.4 WNW 39 50 21 27 998.4 998.4 0.0
24/05:00am 28.5 20.0 1.1 17 13.3 NW 35 46 19 25 998.1 998.1 0.0
24/04:30am 27.3 21.4 1.7 19 12.4 NW 22 30 12 16 997.8 997.8 0.0
24/04:00am 27.9 21.6 1.4 18 12.9 NNW 24 30 13 16 997.2 997.2 0.0
24/03:30am 28.6 22.2 1.2 17 13.2 NW 24 30 13 16 997.8 997.8 0.0
24/03:00am 29.6 22.8 1.1 16 13.9 NNW 26 33 14 18 997.5 997.5 0.0
24/02:30am 29.6 22.8 1.1 16 13.8 NNW 26 33 14 18 997.4 997.4 0.0
24/02:00am 26.7 22.0 3.2 22 11.7 NNW 17 22 9 12 997.5 997.5 0.0
24/01:30am 25.7 20.1 3.6 24 10.9 NNE 22 28 12 15 997.4 997.4 0.0
24/01:00am 27.1 23.1 2.9 21 12.0 NNE 13 20 7 11 997.9 997.9 0.0
24/12:30am 27.4 22.2 2.5 20 12.2 N 19 20 10 11 999.1 999.1 0.0
24/12:00am 29.1 22.9 2.4 18 13.3 N 24 30 13 16 998.7 998.7 0.0
 
Date/Time
EST
Temp
°C
App
Temp
°C
Dew
Point
°C
Rel
Hum
%
Delta-T
°C
Wind Press
QNH
hPa
Press
MSL
hPa
Rain since
9am
mm
Dir  Spd
km/h
Gust
km/h
Spd
kts
Gust
kts
23/11:30pm 29.7 23.6 2.9 18 13.4 NNW 24 32 13 17 999.6 999.6 0.0
23/11:00pm 29.5 22.8 3.5 19 13.2 N 28 33 15 18 1000.2 1000.2 0.0
23/10:30pm 29.5 23.5 3.5 19 13.1 NNW 24 32 13 17 1000.5 1000.5 0.0
23/10:00pm 28.7 22.2 2.8 19 12.9 NNW 26 32 14 17 1000.3 1000.3 0.0
23/09:30pm 26.8 22.4 4.6 24 11.2 NNE 17 19 9 10 1000.2 1000.2 0.0
23/09:00pm 27.1 23.2 7.0 28 10.7 NNE 17 20 9 11 1000.4 1000.4 0.0
23/08:30pm 25.1 20.4 7.7 33 9.2 NNE 22 26 12 14 1000.4 1000.4 0.0
23/08:00pm 25.5 21.1 8.9 35 9.0 NNE 22 28 12 15 1000.4 1000.4 0.0
23/07:30pm 26.0 22.3 8.0 32 9.6 NNE 17 19 9 10 1000.6 1000.6 0.0
23/07:00pm 28.1 23.8 7.9 28 11.0 NNE 20 24 11 13 1000.5 1000.5 0.0
23/06:30pm 27.4 23.5 9.3 32 10.0 NNE 20 26 11 14 1000.5 1000.5 0.0
23/06:00pm 27.1 21.9 10.3 35 9.5 NNE 28 33 15 18 1000.5 1000.5 0.0
23/05:30pm 28.1 22.2 10.3 33 10.0 NE 32 37 17 20 1000.4 1000.4 0.0
23/05:00pm 28.3 20.6 8.6 29 10.8 NNE 39 48 21 26 1000.4 1000.4 0.0
23/04:30pm 28.2 20.3 9.5 31 10.4 NNE 41 50 22 27 1000.4 1000.4 0.0
23/04:00pm 27.8 19.3 8.6 30 10.5 NNE 43 56 23 30 1000.4 1000.4 0.0

Latest Capital City Observations: Canberra | Sydney | Melbourne | Brisbane | Adelaide | Perth | Hobart | Darwin

Other Formats:

Comma delimited format used in spreadsheet applications
http://www.bom.gov.au/fwo/IDN60901/IDN60901.94767.axf

JavaScript Object Notation format (JSON) in row-major order
http://www.bom.gov.au/fwo/IDN60901/IDN60901.94767.json